Garndolbenmaen, United Kingdom
Current Conditions -  °F | °C
As of 9:50 AM on Wednesday 22 Oct 2014 (Local Time) from EGOV Reporting Station
Broken Clouds Broken Clouds  
Wind Chill: 54°   Ceiling: 2800
Heat Index: 54°   Visibility: 6mi
Dew Point: 46°   Wind: 17mph
Humidity: 77%   Direction: 240°WSW
Pressure: 30.24"   Gusts: NA
Location:  52.96°N, 4.21°W
Report Text: EGOV 220850Z 24015KT 9999 FEW023 BKN028 BKN050 12/08 Q1024 BLU TEMPO -RA SCT023 WHT
Loading
Personal Weather Stations






























Interactive Weather Map
Tropical Storm Tracking
New forecast layout! Learn more

10-Day Weather Forecast

Advertisements
Track Severe Weather on mobile